Impacts TAF Board INFO
FOR SITUATIONAL AWARENESS. NOT TO BE USED FOR FLIGHT PLANNING PURPOSES.
IDs:

KDTW - Detroit Metro/Wayne, MI, US

Issued at 1724 UTC 18 Aug 2018
Updated at 1809 UTC 18 Aug 2018
Potential Impact None Slight Moderate High
Time<<19/07Z 19/08Z 19/09Z 19/10Z 19/11Z 19/12Z 19/13Z 19/14Z 19/15Z 19/16Z 19/17Z 19/18Z 19/19Z>>
Type PRVL PRVL PRVL
  [TEMP]  
PRVL
  [TEMP]  
PRVL
  [TEMP]  
PRVL PRVL PRVL PRVL PRVL PRVL PRVL PRVL
VIS 5 5 5
  [2]  
5
  [2]  
5
  [2]  
5 5 5 >6 >6 >6 >6 >6
CIG 8 8 8
  [5]  
8
  [5]  
8
  [5]  
8 8 8 -- -- -- -- --
Cover BKN BKN BKN
  [OVC]  
BKN
  [OVC]  
BKN
  [OVC]  
BKN BKN BKN SCT SCT SCT SCT SCT
FltCat IFR IFR IFR
  [IFR]  
IFR
  [IFR]  
IFR
  [IFR]  
IFR IFR IFR VFR VFR VFR VFR VFR
WX BR BR BR
  [BR]  
BR
  [BR]  
BR
  [BR]  
BR BR BR -- -- -- -- --
WDir VRB VRB VRB
[VRB]
VRB
[VRB]
VRB
[VRB]
VRB VRB VRB VRB VRB VRB VRB VRB
WSpd 5 5 5
  [5]  
5
  [5]  
5
  [5]  
5 5 5 5 5 5 5 5
WGst -- -- --
  [--]  
--
  [--]  
--
  [--]  
-- -- -- -- -- -- -- --

Raw TAF
KDTW 181724Z 1818/1924 VRB04KT P6SM BKN035
  FM182000 VRB05KT P6SM VCTS BKN035CB
  FM182200 VRB05KT P6SM SCT040
  FM190700 VRB05KT 5SM BR BKN008
  TEMPO 1909/1912 2SM BR OVC005
  FM191500 VRB05KT P6SM SCT030


METAR Board
Radar Display
Forecast Discussion

FOR SITUATIONAL AWARENESS. NOT TO BE USED FOR FLIGHT PLANNING PURPOSES.